KMHE/MHE METAR and TAF weather

Enter ICAO airport designator
Station Type Date Time Source
KMHE METAR 2019/08/23 14:53 UTC NOAA

KMHE 231453Z AUTO 12014G21KT 10SM OVC055 19/13 A3008 RMK AO2 SLP182 T01890133 50003


Station Type Date Time Source
KMHE Decoded METAR 2019/08/23 14:53 UTC NOAA

Station name not available
Aug 23, 2019 - 10:53 AM EDT / 2019.08.23 1453 UTC
Wind: from the ESE (120 degrees) at 16 MPH (14 KT) gusting to 24 MPH (21 KT):0
Visibility: 10 mile(s):0
Sky conditions: overcast
Temperature: 66.0 F (18.9 C)
Dew Point: 55.9 F (13.3 C)
Relative Humidity: 69%
Pressure (altimeter): 30.08 in. Hg (1018 hPa)
Pressure tendency: 0.01 inches (0.3 hPa) higher than three hours ago
ob: KMHE 231453Z AUTO 12014G21KT 10SM OVC055 19/13 A3008 RMK AO2 SLP182 T01890133 50003
cycle: 15

Station Type Date Time Source
KMHE TAF UTC NOAA

Error!

Example: see airport list